Time;durP1;ratioP1;P1;durP2;ratioP2;P2;SDS_P1;SDS_P2;PMS_P1;PMS_P2;Temp;Humidity;BMP_temperature;BMP_pressure;BME280_temperature;BME280_humidity;BME280_pressure;Samples;Min_cycle;Max_cycle;Signal;HPM_P1;HPM_P2
2022/06/18 00:01:37;;;;;;;6.58;5.97;;;;;;;15.78;99.84;99881.42;1678280;82;21490;-75
2022/06/18 00:04:13;;;;;;;6.78;6.03;;;;;;;15.78;100.00;99886.84;1678405;85;21077;-77
2022/06/18 00:07:00;;;;;;;7.17;6.45;;;;;;;15.79;100.00;99872.17;1677684;85;21006;-73
2022/06/18 00:09:33;;;;;;;8.20;7.40;;;;;;;15.63;100.00;99865.47;1677282;84;21072;-74
2022/06/18 00:14:59;;;;;;;10.78;9.25;;;;;;;15.17;100.00;99862.10;1677556;85;20969;-75
2022/06/18 00:17:27;;;;;;;10.95;8.35;;;;;;;15.00;100.00;99862.97;1678596;85;20984;-74
2022/06/18 00:19:54;;;;;;;9.80;8.30;;;;;;;14.96;100.00;99867.86;1677532;85;21518;-75
2022/06/18 00:22:22;;;;;;;8.93;8.03;;;;;;;14.90;100.00;99857.58;1676740;84;21522;-75
2022/06/18 00:24:49;;;;;;;8.78;7.97;;;;;;;14.88;100.00;99858.92;1674569;85;21757;-75
2022/06/18 00:27:17;;;;;;;8.23;7.50;;;;;;;14.86;100.00;99853.80;1684473;83;21553;-76
2022/06/18 00:29:44;;;;;;;9.58;8.60;;;;;;;14.85;100.00;99853.52;1677493;83;21538;-74
2022/06/18 00:32:11;;;;;;;9.98;8.85;;;;;;;14.85;100.00;99845.40;1675941;84;21046;-74
2022/06/18 00:34:38;;;;;;;12.25;7.78;;;;;;;14.87;100.00;99845.13;1678587;83;21065;-75
2022/06/18 00:37:05;;;;;;;7.67;6.90;;;;;;;15.02;100.00;99841.01;1676817;84;21818;-75
2022/06/18 00:39:32;;;;;;;8.15;7.50;;;;;;;15.18;100.00;99840.70;1677910;85;21294;-75
2022/06/18 00:42:02;;;;;;;7.87;7.05;;;;;;;15.37;100.00;99831.95;1687202;83;21001;-76
2022/06/18 00:44:35;;;;;;;8.73;6.80;;;;;;;15.54;100.00;99833.82;1673013;84;21048;-75
2022/06/18 00:47:22;;;;;;;9.73;6.50;;;;;;;15.69;100.00;99830.45;1678349;84;20992;-75
2022/06/18 00:50:18;;;;;;;8.05;6.90;;;;;;;15.88;100.00;99830.62;1665162;84;21811;-75
2022/06/18 00:52:55;;;;;;;10.80;7.60;;;;;;;16.12;100.00;99833.44;1676557;84;20985;-75
2022/06/18 00:55:33;;;;;;;7.25;6.50;;;;;;;16.31;100.00;99833.02;1677605;84;21708;-75
2022/06/18 00:58:20;;;;;;;10.35;6.20;;;;;;;16.45;100.00;99827.77;1677144;84;21104;-76
2022/06/18 01:00:49;;;;;;;7.95;6.80;;;;;;;16.38;100.00;99819.94;1675549;85;21066;-74
2022/06/18 01:03:28;;;;;;;7.20;6.40;;;;;;;16.29;100.00;99833.05;1675877;85;21105;-73
2022/06/18 01:05:58;;;;;;;11.05;7.12;;;;;;;16.25;100.00;99830.64;1645529;85;21028;-72
2022/06/18 01:08:27;;;;;;;7.70;6.90;;;;;;;16.23;100.00;99827.39;1676915;84;20966;-71
2022/06/18 01:11:03;;;;;;;9.35;7.37;;;;;;;16.34;100.00;99834.37;1674079;84;21020;-72
2022/06/18 01:13:35;;;;;;;9.75;8.33;;;;;;;16.45;100.00;99847.55;1693401;83;20993;-73
2022/06/18 01:16:01;;;;;;;8.68;7.97;;;;;;;16.46;99.55;99832.89;1652693;85;21240;-73
2022/06/18 01:18:29;;;;;;;8.98;7.97;;;;;;;16.42;98.67;99829.13;1674467;85;21033;-72
2022/06/18 01:21:35;;;;;;;10.38;9.48;;;;;;;16.38;98.14;99840.30;1675042;84;21048;-72
2022/06/18 01:24:17;;;;;;;9.98;8.40;;;;;;;16.35;97.69;99842.78;1687305;84;21542;-72
2022/06/18 01:26:46;;;;;;;9.50;8.60;;;;;;;16.31;97.32;99837.62;1650442;85;21002;-72
2022/06/18 01:29:13;;;;;;;10.98;8.98;;;;;;;16.28;97.16;99837.66;1651809;85;21806;-72
2022/06/18 01:31:41;;;;;;;11.28;8.65;;;;;;;16.27;96.97;99831.97;1659768;84;21063;-72
2022/06/18 01:34:09;;;;;;;11.12;9.83;;;;;;;16.25;96.72;99836.07;1681935;83;21032;-70
2022/06/18 01:36:37;;;;;;;9.98;9.03;;;;;;;16.21;96.69;99833.67;1678163;84;20949;-71
2022/06/18 01:39:08;;;;;;;8.48;7.67;;;;;;;16.18;96.67;99826.07;1676138;84;21025;-71
2022/06/18 01:41:52;;;;;;;7.45;6.75;;;;;;;16.14;96.70;99836.15;1673821;85;22007;-71
2022/06/18 01:44:48;;;;;;;7.55;6.85;;;;;;;16.11;96.66;99835.33;1676381;84;21050;-71
2022/06/18 01:47:24;;;;;;;9.63;7.25;;;;;;;16.06;96.55;99836.75;1660301;84;21649;-72
2022/06/18 01:50:14;;;;;;;8.30;7.50;;;;;;;16.07;96.55;99829.40;1656826;86;21377;-72
2022/06/18 01:52:47;;;;;;;7.62;6.72;;;;;;;16.09;96.38;99832.66;1664766;84;21536;-73
2022/06/18 01:55:21;;;;;;;10.10;6.83;;;;;;;16.10;96.03;99836.99;1653034;86;21787;-73
2022/06/18 01:57:52;;;;;;;8.63;7.15;;;;;;;16.09;95.75;99825.33;1656967;86;20956;-73
2022/06/18 02:00:25;;;;;;;7.97;7.35;;;;;;;16.08;95.66;99827.77;1658588;84;21048;-73
2022/06/18 02:02:54;;;;;;;7.55;6.95;;;;;;;16.12;95.45;99830.72;1660603;84;21035;-73
2022/06/18 02:05:21;;;;;;;7.90;7.08;;;;;;;16.13;95.09;99822.85;1671935;84;21597;-75
2022/06/18 02:07:48;;;;;;;8.28;7.22;;;;;;;16.14;94.66;99820.41;1651714;85;22030;-76
2022/06/18 02:10:33;;;;;;;8.38;7.42;;;;;;;16.16;94.22;99821.49;1656520;84;20968;-73
2022/06/18 02:13:01;;;;;;;8.38;6.55;;;;;;;16.14;94.02;99811.72;1668509;83;21034;-74
2022/06/18 02:15:30;;;;;;;7.62;6.58;;;;;;;16.15;93.79;99816.61;1669579;85;21054;-75
2022/06/18 02:17:59;;;;;;;6.45;5.85;;;;;;;16.07;93.53;99819.91;1662171;86;21057;-73
2022/06/18 02:20:28;;;;;;;7.95;7.03;;;;;;;16.00;93.92;99820.24;1649965;86;21147;-76
2022/06/18 02:22:56;;;;;;;7.10;6.50;;;;;;;15.91;94.13;99826.00;1660982;85;21096;-75
2022/06/18 02:25:24;;;;;;;6.75;6.12;;;;;;;15.88;94.60;99820.31;1659772;86;21538;-77
2022/06/18 02:27:58;;;;;;;7.83;6.53;;;;;;;15.88;94.72;99813.53;1661550;86;21596;-73
2022/06/18 02:30:28;;;;;;;7.37;6.70;;;;;;;15.91;95.08;99816.51;1649064;85;21486;-74
2022/06/18 02:33:00;;;;;;;7.97;7.03;;;;;;;15.95;95.04;99821.62;1683483;85;21125;-75
2022/06/18 02:35:29;;;;;;;7.67;5.75;;;;;;;15.98;94.98;99823.77;1680581;84;21097;-76
2022/06/18 02:37:56;;;;;;;7.97;6.40;;;;;;;15.95;94.62;99822.98;1666957;85;21037;-72
2022/06/18 02:40:27;;;;;;;6.00;5.58;;;;;;;15.92;94.60;99820.04;1664030;85;21017;-72
2022/06/18 02:42:57;;;;;;;6.30;5.80;;;;;;;15.90;94.46;99831.70;1664306;85;21032;-72
2022/06/18 02:45:25;;;;;;;11.45;6.47;;;;;;;15.87;94.53;99832.27;1661688;85;21063;-72
2022/06/18 02:47:55;;;;;;;7.33;6.58;;;;;;;15.87;94.60;99828.20;1660555;85;21044;-72
2022/06/18 02:50:23;;;;;;;6.75;6.15;;;;;;;15.88;94.71;99825.19;1667828;85;21545;-72
2022/06/18 02:52:53;;;;;;;6.78;6.17;;;;;;;15.90;94.74;99827.63;1660247;84;21550;-73
2022/06/18 02:55:36;;;;;;;6.05;5.53;;;;;;;15.90;94.83;99827.09;1648079;85;21053;-73
2022/06/18 02:58:12;;;;;;;6.70;6.10;;;;;;;15.90;94.76;99836.58;1649501;85;21128;-72
2022/06/18 03:00:42;;;;;;;7.12;6.42;;;;;;;15.88;94.82;99833.33;1654653;84;20942;-73
2022/06/18 03:03:11;;;;;;;6.22;5.80;;;;;;;15.90;94.84;99832.52;1654650;85;21022;-72
2022/06/18 03:05:38;;;;;;;7.08;5.80;;;;;;;15.92;94.70;99829.53;1654226;86;21104;-72
2022/06/18 03:08:05;;;;;;;5.45;5.05;;;;;;;15.95;94.68;99832.48;1661327;85;20956;-72
2022/06/18 03:13:20;;;;;;;6.03;5.42;;;;;;;16.04;94.21;99840.28;1645883;87;21002;-74
2022/06/18 03:15:52;;;;;;;5.92;5.42;;;;;;;16.05;93.46;99841.09;1648698;86;20934;-73
2022/06/18 03:18:23;;;;;;;7.25;6.15;;;;;;;16.01;93.28;99840.86;1644363;85;21647;-74
2022/06/18 03:21:16;;;;;;;6.97;6.40;;;;;;;15.97;93.19;99845.77;1672383;85;21139;-73
2022/06/18 03:23:45;;;;;;;6.35;5.85;;;;;;;15.95;93.37;99842.52;1655817;85;26961;-73
2022/06/18 03:26:12;;;;;;;7.28;6.17;;;;;;;15.95;93.61;99847.95;1640469;87;21033;-73
2022/06/18 03:28:40;;;;;;;6.50;5.97;;;;;;;15.93;93.87;99845.50;1659894;85;21017;-72
2022/06/18 03:31:08;;;;;;;7.50;6.45;;;;;;;15.92;93.96;99843.09;1672461;85;21012;-72
2022/06/18 03:33:37;;;;;;;7.17;6.25;;;;;;;15.87;94.15;99848.01;1672376;85;21114;-73
2022/06/18 03:36:06;;;;;;;8.28;7.40;;;;;;;15.82;94.56;99852.10;1667123;85;21133;-73
2022/06/18 03:38:33;;;;;;;6.90;6.25;;;;;;;15.79;95.08;99846.41;1635700;86;21570;-74
2022/06/18 03:41:00;;;;;;;9.78;6.55;;;;;;;15.76;95.57;99852.41;1645137;87;20969;-73
2022/06/18 03:43:27;;;;;;;7.30;6.70;;;;;;;15.72;96.13;99849.45;1644297;86;21053;-73
2022/06/18 03:45:59;;;;;;;9.65;7.00;;;;;;;15.73;96.66;99851.62;1654042;84;21071;-73
2022/06/18 03:48:30;;;;;;;7.90;7.20;;;;;;;15.73;97.09;99853.75;1683805;83;21150;-73
2022/06/18 03:50:58;;;;;;;8.28;7.45;;;;;;;15.74;97.45;99847.25;1652837;85;20977;-74
2022/06/18 03:53:25;;;;;;;9.38;8.45;;;;;;;15.73;97.90;99845.62;1678959;83;20994;-73
2022/06/18 03:55:52;;;;;;;10.48;7.92;;;;;;;15.70;98.19;99840.77;1672741;84;21053;-73
2022/06/18 03:58:19;;;;;;;9.58;8.58;;;;;;;15.69;98.54;99852.70;1678655;83;21109;-73
2022/06/18 04:00:49;;;;;;;9.23;8.45;;;;;;;15.67;99.01;99846.76;1710478;83;21130;-71
2022/06/18 04:03:16;;;;;;;9.15;8.25;;;;;;;15.67;99.42;99838.08;1667115;84;21104;-73
2022/06/18 04:05:45;;;;;;;11.00;9.90;;;;;;;15.70;99.89;99839.41;1680635;83;20958;-72
2022/06/18 04:08:14;;;;;;;8.90;8.18;;;;;;;15.74;100.00;99841.83;1677333;83;21077;-74
2022/06/18 04:10:48;;;;;;;10.32;9.53;;;;;;;15.81;100.00;99844.23;1679557;84;20944;-73
2022/06/18 04:13:16;;;;;;;10.88;9.90;;;;;;;15.85;100.00;99843.39;1681332;84;21155;-72
2022/06/18 04:15:47;;;;;;;10.45;9.55;;;;;;;15.91;100.00;99847.70;1685903;83;21573;-73
2022/06/18 04:18:30;;;;;;;15.13;10.40;;;;;;;15.93;100.00;99850.93;1669583;83;20921;-72
2022/06/18 04:20:59;;;;;;;10.45;9.55;;;;;;;15.95;100.00;99843.34;1661548;84;21270;-75
2022/06/18 04:23:28;;;;;;;12.43;10.32;;;;;;;15.99;100.00;99844.39;1662969;83;21069;-75
2022/06/18 04:25:54;;;;;;;17.55;15.58;;;;;;;16.04;100.00;99849.78;1676053;83;21817;-74
2022/06/18 04:28:25;;;;;;;11.15;10.15;;;;;;;16.09;100.00;99847.03;1669245;84;21064;-74
2022/06/18 04:30:56;;;;;;;10.70;9.60;;;;;;;16.17;100.00;99849.68;1677302;84;21057;-73
2022/06/18 04:33:25;;;;;;;14.43;11.08;;;;;;;16.22;100.00;99848.29;1680622;83;21092;-73
2022/06/18 04:35:55;;;;;;;10.48;9.53;;;;;;;16.24;100.00;99844.76;1688717;83;21029;-73
2022/06/18 04:38:24;;;;;;;11.10;10.10;;;;;;;16.28;100.00;99849.88;1700865;83;21125;-74
2022/06/18 04:41:01;;;;;;;12.43;11.30;;;;;;;16.32;100.00;99852.28;1664557;83;21052;-74
2022/06/18 04:43:35;;;;;;;12.63;10.50;;;;;;;16.35;100.00;99850.92;1688649;83;21052;-72
2022/06/18 04:46:02;;;;;;;11.22;10.23;;;;;;;16.39;100.00;99851.97;1669655;85;21589;-74
2022/06/18 04:48:29;;;;;;;10.95;9.85;;;;;;;16.41;100.00;99857.37;1695556;83;21515;-73
2022/06/18 04:50:55;;;;;;;12.43;11.12;;;;;;;16.46;100.00;99853.25;1691737;83;21985;-72
2022/06/18 04:53:24;;;;;;;10.75;9.60;;;;;;;16.53;100.00;99856.47;1672382;83;21029;-75
2022/06/18 04:55:53;;;;;;;10.80;9.70;;;;;;;16.67;100.00;99865.34;1666069;84;20946;-75
2022/06/18 04:58:20;;;;;;;10.63;9.53;;;;;;;16.77;100.00;99872.03;1664350;83;21008;-74
2022/06/18 05:00:58;;;;;;;11.83;10.75;;;;;;;16.85;99.43;99863.25;1663549;85;21102;-75
2022/06/18 05:03:42;;;;;;;11.43;10.30;;;;;;;16.90;98.70;99864.02;1646623;86;21575;-74
2022/06/18 05:06:16;;;;;;;10.65;9.75;;;;;;;16.99;98.11;99866.91;1668149;84;21557;-74
2022/06/18 05:09:00;;;;;;;10.15;9.35;;;;;;;17.08;97.25;99867.91;1667218;83;20998;-72
2022/06/18 05:11:28;;;;;;;11.43;10.13;;;;;;;17.11;96.42;99869.25;1663727;84;21498;-74
2022/06/18 05:13:58;;;;;;;15.13;10.13;;;;;;;17.14;96.16;99873.55;1649652;85;21057;-72
2022/06/18 05:16:26;;;;;;;11.45;10.30;;;;;;;17.21;96.04;99882.73;1681510;83;21590;-73
2022/06/18 05:18:54;;;;;;;9.90;9.00;;;;;;;17.29;95.85;99885.63;1670634;84;20950;-73
2022/06/18 05:21:21;;;;;;;10.35;9.23;;;;;;;17.37;95.14;99887.69;1680317;83;21025;-74
2022/06/18 05:23:48;;;;;;;14.23;11.55;;;;;;;17.44;94.25;99885.45;1679979;84;21045;-72
2022/06/18 05:26:16;;;;;;;9.70;8.80;;;;;;;17.47;93.41;99890.84;1681961;83;22196;-73
2022/06/18 05:28:44;;;;;;;10.95;9.65;;;;;;;17.49;92.83;99890.02;1669811;85;21151;-74
2022/06/18 05:31:11;;;;;;;10.55;9.15;;;;;;;17.55;92.74;99893.49;1666574;83;21005;-72
2022/06/18 05:33:38;;;;;;;9.18;8.18;;;;;;;17.61;92.66;99899.95;1680813;82;21089;-73
2022/06/18 05:36:08;;;;;;;10.20;9.18;;;;;;;17.71;92.38;99897.10;1678347;83;21550;-73
2022/06/18 05:38:35;;;;;;;8.95;8.25;;;;;;;17.82;92.07;99896.42;1687925;83;21041;-73
2022/06/18 05:41:01;;;;;;;8.70;8.00;;;;;;;17.85;90.48;99902.09;1688228;83;21789;-73
2022/06/18 05:43:29;;;;;;;11.70;8.90;;;;;;;17.89;89.47;99900.94;1685222;82;21555;-73
2022/06/18 05:45:55;;;;;;;10.00;8.50;;;;;;;17.94;88.45;99904.17;1680104;85;21047;-75
2022/06/18 05:48:22;;;;;;;8.45;7.85;;;;;;;17.90;87.53;99905.84;1693105;84;21097;-76
2022/06/18 05:50:49;;;;;;;9.85;8.10;;;;;;;17.90;87.13;99905.29;1709469;81;21065;-75
2022/06/18 05:53:15;;;;;;;8.78;7.92;;;;;;;17.93;86.83;99906.63;1659522;84;21640;-74
2022/06/18 05:55:59;;;;;;;9.30;8.50;;;;;;;17.96;86.80;99911.48;1668493;84;20994;-74
2022/06/18 05:58:28;;;;;;;9.98;9.13;;;;;;;17.97;86.68;99913.92;1685590;84;21037;-74
2022/06/18 06:00:57;;;;;;;11.20;8.58;;;;;;;17.99;86.91;99908.16;1709672;82;21025;-74
2022/06/18 06:03:25;;;;;;;9.88;8.88;;;;;;;18.02;87.14;99908.95;1703064;83;21085;-75
2022/06/18 06:05:52;;;;;;;9.35;8.43;;;;;;;18.06;87.16;99909.98;1674740;84;21190;-73
2022/06/18 06:08:21;;;;;;;8.40;7.60;;;;;;;18.05;85.86;99907.80;1657172;84;20981;-74
2022/06/18 06:13:35;;;;;;;7.65;7.05;;;;;;;18.10;85.67;99894.13;1661038;84;20919;-73
2022/06/18 06:16:02;;;;;;;8.03;7.20;;;;;;;18.15;85.44;99891.33;1674673;84;21100;-73
2022/06/18 06:18:32;;;;;;;8.05;7.25;;;;;;;18.24;85.33;99903.72;1668299;84;21678;-73
2022/06/18 06:21:02;;;;;;;9.13;8.38;;;;;;;18.30;84.75;99904.72;1669129;84;21593;-74
2022/06/18 06:23:29;;;;;;;8.05;7.25;;;;;;;18.39;83.99;99910.86;1679315;84;21052;-74
2022/06/18 06:25:56;;;;;;;8.50;7.05;;;;;;;18.46;83.22;99916.75;1708190;82;21100;-76
2022/06/18 06:28:26;;;;;;;7.22;6.62;;;;;;;18.49;82.47;99914.78;1709037;83;21068;-76
2022/06/18 06:30:54;;;;;;;8.30;7.62;;;;;;;18.53;81.75;99918.53;1678264;84;21547;-77
2022/06/18 06:33:21;;;;;;;8.65;7.80;;;;;;;18.54;81.51;99911.46;1670775;84;21526;-75
2022/06/18 06:35:48;;;;;;;7.35;6.75;;;;;;;18.57;81.66;99923.12;1670589;84;21088;-75
2022/06/18 06:38:15;;;;;;;6.85;6.15;;;;;;;18.64;81.22;99921.39;1704862;84;21041;-75
2022/06/18 06:40:42;;;;;;;8.68;5.55;;;;;;;18.63;77.90;99917.85;1699564;83;21061;-74
2022/06/18 06:43:12;;;;;;;6.37;5.87;;;;;;;18.62;77.65;99909.41;1673121;84;21910;-76
2022/06/18 06:45:39;;;;;;;6.70;6.10;;;;;;;18.68;77.77;99918.32;1674727;84;21110;-76
2022/06/18 06:48:05;;;;;;;9.63;6.55;;;;;;;18.75;78.70;99917.95;1672263;84;21033;-75
2022/06/18 06:50:34;;;;;;;6.70;6.12;;;;;;;18.82;78.20;99920.53;1659732;85;21299;-75
2022/06/18 06:53:00;;;;;;;6.55;5.87;;;;;;;18.91;77.86;99918.73;1676785;84;21014;-76
2022/06/18 06:58:20;;;;;;;5.85;5.25;;;;;;;19.11;77.29;99918.94;1665595;85;21135;-75
2022/06/18 07:00:51;;;;;;;5.92;5.42;;;;;;;19.19;76.78;99922.32;1678901;83;21021;-76
2022/06/18 07:03:24;;;;;;;4.85;4.45;;;;;;;19.23;76.23;99919.27;1677726;85;21049;-77
2022/06/18 07:05:51;;;;;;;5.17;4.03;;;;;;;19.28;73.44;99913.69;1691133;84;21066;-76
2022/06/18 07:08:18;;;;;;;5.12;4.70;;;;;;;19.36;72.18;99916.30;1689999;84;21099;-76
2022/06/18 07:10:44;;;;;;;5.90;5.05;;;;;;;19.34;71.94;99919.31;1696232;84;21503;-76
2022/06/18 07:13:11;;;;;;;5.92;5.42;;;;;;;19.36;72.29;99924.48;1685634;83;21081;-76
2022/06/18 07:15:39;;;;;;;5.03;4.60;;;;;;;19.36;72.59;99932.11;1674815;85;21010;-77
2022/06/18 07:18:22;;;;;;;6.53;5.10;;;;;;;19.38;72.64;99924.41;1679877;84;21088;-79
2022/06/18 07:20:50;;;;;;;7.85;4.60;;;;;;;19.40;72.67;99930.39;1692178;84;22587;-75
2022/06/18 07:23:16;;;;;;;6.80;4.97;;;;;;;19.43;72.45;99926.23;1687114;84;21037;-78
2022/06/18 07:25:43;;;;;;;4.80;4.40;;;;;;;19.45;72.11;99928.15;1678819;85;21070;-75
2022/06/18 07:28:10;;;;;;;5.35;4.25;;;;;;;19.47;72.64;99939.00;1684003;84;21170;-77
2022/06/18 07:30:36;;;;;;;7.37;4.97;;;;;;;19.49;71.44;99938.16;1690774;82;21053;-74
2022/06/18 07:33:03;;;;;;;6.42;5.92;;;;;;;19.51;71.59;99935.94;1675750;85;21125;-75
2022/06/18 07:35:31;;;;;;;6.28;5.78;;;;;;;19.50;72.48;99940.33;1670809;83;21010;-73
2022/06/18 07:37:59;;;;;;;5.97;5.35;;;;;;;19.50;72.98;99941.14;1674835;84;21043;-73
2022/06/18 07:40:33;;;;;;;6.92;6.33;;;;;;;19.47;73.42;99943.09;1678515;84;21029;-73
2022/06/18 07:43:01;;;;;;;6.12;5.55;;;;;;;19.40;73.73;99941.30;1679347;83;21083;-75
2022/06/18 07:45:29;;;;;;;7.30;6.60;;;;;;;19.34;74.26;99938.95;1685542;84;21551;-76
2022/06/18 07:47:57;;;;;;;6.80;6.10;;;;;;;19.34;74.36;99943.86;1674716;84;38120;-74
2022/06/18 07:50:24;;;;;;;6.95;6.30;;;;;;;19.36;74.22;99942.20;1674286;84;21534;-76
2022/06/18 07:52:51;;;;;;;7.78;7.17;;;;;;;19.38;75.03;99948.15;1678994;84;21051;-78
2022/06/18 07:55:22;;;;;;;9.93;7.03;;;;;;;19.40;76.05;99948.13;1680555;84;21155;-78
2022/06/18 07:57:49;;;;;;;8.00;7.35;;;;;;;19.40;76.27;99945.39;1681426;84;21381;-79
2022/06/18 08:00:19;;;;;;;8.05;7.35;;;;;;;19.38;76.28;99949.52;1667955;83;20966;-77
2022/06/18 08:02:46;;;;;;;7.97;7.28;;;;;;;19.35;76.82;99944.12;1661490;86;21562;-75
2022/06/18 08:05:22;;;;;;;8.43;7.62;;;;;;;19.36;77.30;99937.56;1671168;84;21097;-74
2022/06/18 08:07:49;;;;;;;7.70;7.10;;;;;;;19.41;77.54;99947.02;1682063;85;21534;-74
2022/06/18 08:10:16;;;;;;;9.00;8.00;;;;;;;19.48;77.44;99944.71;1706483;83;21178;-75
2022/06/18 08:12:42;;;;;;;11.05;8.15;;;;;;;19.56;77.14;99944.58;1685562;83;21064;-77
2022/06/18 08:15:09;;;;;;;8.88;8.18;;;;;;;19.60;77.11;99951.05;1706095;83;21031;-76
2022/06/18 08:17:37;;;;;;;7.37;6.67;;;;;;;19.66;76.54;99940.30;1680955;83;21113;-75
2022/06/18 08:20:05;;;;;;;8.45;7.72;;;;;;;19.73;76.41;99940.67;1677033;83;21082;-75
2022/06/18 08:22:34;;;;;;;7.62;7.03;;;;;;;19.81;75.97;99950.88;1630472;85;21264;-75
2022/06/18 08:25:01;;;;;;;6.92;6.30;;;;;;;19.85;74.44;99946.45;1678471;85;20977;-74
2022/06/18 08:27:27;;;;;;;7.72;7.12;;;;;;;19.84;73.32;99961.20;1681991;85;20942;-74
2022/06/18 08:29:54;;;;;;;6.20;5.60;;;;;;;19.82;73.42;99960.69;1669772;84;21034;-74
2022/06/18 08:32:20;;;;;;;6.72;6.22;;;;;;;19.82;73.90;99959.88;1663872;84;21715;-74
2022/06/18 08:34:47;;;;;;;7.10;6.60;;;;;;;19.82;74.68;99969.42;1688005;83;23465;-75
2022/06/18 08:37:13;;;;;;;8.28;6.78;;;;;;;19.78;75.72;99977.42;1690058;84;20957;-75
2022/06/18 08:39:40;;;;;;;9.48;6.80;;;;;;;19.68;77.18;99975.44;1693818;83;21157;-75
2022/06/18 08:42:42;;;;;;;7.42;6.30;;;;;;;19.52;75.83;99979.02;1695267;84;21085;-75
2022/06/18 08:45:27;;;;;;;5.83;5.33;;;;;;;19.46;77.05;99976.96;1689782;84;21056;-75
2022/06/18 08:48:15;;;;;;;6.33;5.72;;;;;;;19.40;79.44;99975.95;1692743;83;21876;-76
2022/06/18 08:50:56;;;;;;;7.20;6.62;;;;;;;19.30;80.34;99970.13;1672596;84;20953;-77
2022/06/18 08:53:43;;;;;;;7.08;5.70;;;;;;;19.22;80.48;99972.74;1680346;84;21063;-75
2022/06/18 08:56:14;;;;;;;10.20;7.20;;;;;;;19.15;81.08;99979.38;1670351;83;21060;-75
2022/06/18 08:59:04;;;;;;;;;;;;;;;19.05;82.07;99978.74;1672913;84;21020;-73
2022/06/18 09:01:47;;;;;;;6.22;5.72;;;;;;;19.03;82.91;99971.44;1667505;84;21247;-74
2022/06/18 09:04:18;;;;;;;;;;;;;;;19.05;82.17;99973.30;1677181;84;21030;-75
2022/06/18 09:07:09;;;;;;;5.70;4.97;;;;;;;18.98;79.86;99983.23;1653751;84;20143;-76
2022/06/18 09:09:49;;;;;;;6.10;5.60;;;;;;;19.02;80.03;99982.08;1632533;87;21143;-75
2022/06/18 09:12:35;;;;;;;7.28;5.83;;;;;;;18.99;80.17;99982.11;1665750;86;21609;-75
2022/06/18 09:15:09;;;;;;;5.67;5.17;;;;;;;19.09;81.33;99979.21;1663345;86;21554;-75
2022/06/18 09:17:53;;;;;;;7.78;5.35;;;;;;;19.28;81.35;99980.52;1659516;84;21071;-74
2022/06/18 09:20:25;;;;;;;10.43;6.12;;;;;;;19.43;79.37;99987.06;1686598;84;21624;-75
2022/06/18 09:22:55;;;;;;;6.10;5.60;;;;;;;19.49;79.51;99987.27;1679330;85;21060;-76
2022/06/18 09:25:27;;;;;;;10.82;6.35;;;;;;;19.62;78.53;99985.64;1684501;84;21770;-76
2022/06/18 09:28:04;;;;;;;7.72;7.08;;;;;;;19.67;77.60;99984.19;1672904;84;21870;-75
2022/06/18 09:30:40;;;;;;;7.40;5.50;;;;;;;19.81;78.21;99981.45;1667088;84;21044;-74
2022/06/18 09:33:22;;;;;;;5.92;5.42;;;;;;;19.99;76.04;99981.37;1665617;84;21092;-76
2022/06/18 09:35:54;;;;;;;5.83;5.33;;;;;;;20.16;75.22;99975.27;1636643;86;21637;-75
2022/06/18 09:38:40;;;;;;;7.53;5.20;;;;;;;20.28;73.21;99972.02;1667476;84;21122;-77
2022/06/18 09:41:16;;;;;;;9.03;6.60;;;;;;;20.40;71.78;99968.20;1670419;84;21155;-80
2022/06/18 09:44:14;;;;;;;6.55;6.05;;;;;;;20.54;71.46;99977.72;1656105;84;20986;-78
2022/06/18 09:47:16;;;;;;;7.05;5.92;;;;;;;20.72;70.63;99961.15;1659423;84;21029;-78
2022/06/18 09:49:45;;;;;;;;;;;;;;;20.72;70.63;99961.15;1713312;83;21095;-78
2022/06/18 09:52:35;;;;;;;12.25;5.80;;;;;;;20.70;69.07;99955.20;1710187;83;20154;-78
2022/06/18 09:55:06;;;;;;;6.55;5.45;;;;;;;20.61;70.29;99978.94;1686862;83;22498;-78
2022/06/18 09:57:36;;;;;;;5.40;4.97;;;;;;;20.53;70.18;99971.45;1686216;83;20921;-77
2022/06/18 10:00:16;;;;;;;4.45;4.12;;;;;;;20.49;70.88;99972.38;1697540;83;21072;-78
2022/06/18 10:02:55;;;;;;;3.80;3.50;;;;;;;20.44;70.55;99967.84;1708354;83;21045;-81
2022/06/18 10:08:11;;;;;;;3.80;3.50;;;;;;;20.45;66.66;99959.34;1692315;83;22248;-78
2022/06/18 10:10:46;;;;;;;3.62;3.33;;;;;;;20.54;66.33;99961.33;1689899;83;21033;-77
2022/06/18 10:13:19;;;;;;;3.67;3.22;;;;;;;20.66;65.16;99949.30;1695785;83;21065;-78
2022/06/18 10:15:47;;;;;;;3.42;3.22;;;;;;;20.85;65.05;99952.66;1689778;84;21602;-79
2022/06/18 10:18:43;;;;;;;7.05;4.03;;;;;;;21.00;63.92;99970.62;1689828;83;21032;-79
2022/06/18 10:21:30;;;;;;;5.05;3.30;;;;;;;21.10;63.62;99952.00;1689806;83;21044;-81
2022/06/18 10:24:09;;;;;;;3.55;3.02;;;;;;;21.21;63.38;99963.52;1707117;83;21040;-81
2022/06/18 10:26:44;;;;;;;4.83;4.08;;;;;;;21.20;63.89;99964.63;1670357;83;22143;-82
2022/06/18 10:29:28;;;;;;;3.95;3.65;;;;;;;21.13;64.73;99965.09;1683909;83;21119;-82
2022/06/18 10:32:26;;;;;;;3.67;3.17;;;;;;;21.12;64.57;99969.47;1714448;83;21047;-79
2022/06/18 10:35:21;;;;;;;5.33;3.87;;;;;;;21.11;64.31;99967.84;1686014;84;21186;-86
2022/06/18 10:37:58;;;;;;;3.67;3.37;;;;;;;20.99;63.28;99969.80;1698545;83;21109;-81
2022/06/18 10:40:39;;;;;;;3.72;3.10;;;;;;;20.88;62.87;99974.71;1709724;83;21049;-81
2022/06/18 10:43:52;;;;;;;3.17;2.83;;;;;;;20.82;63.33;99962.27;1693948;84;21486;-80
2022/06/18 10:46:21;;;;;;;3.98;3.67;;;;;;;20.79;63.74;99966.20;1671959;84;21119;-81
2022/06/18 10:48:58;;;;;;;4.60;2.80;;;;;;;20.78;63.99;99969.48;1705560;83;21128;-79
2022/06/18 10:51:27;;;;;;;3.17;2.90;;;;;;;20.83;63.90;99966.62;1639470;86;21505;-78
2022/06/18 10:54:03;;;;;;;3.83;3.45;;;;;;;20.79;62.59;99962.91;1654408;86;20949;-81
2022/06/18 10:56:32;;;;;;;3.27;2.60;;;;;;;20.81;63.23;99969.44;1655317;85;21078;-85
2022/06/18 10:59:02;;;;;;;3.30;3.00;;;;;;;20.92;63.42;99972.16;1646720;86;21085;-82
2022/06/18 11:01:39;;;;;;;4.92;2.85;;;;;;;21.06;63.23;99976.18;1669877;84;21886;-80
2022/06/18 11:04:20;;;;;;;4.53;3.85;;;;;;;21.22;62.80;99972.79;1660990;84;21020;-77
2022/06/18 11:06:47;;;;;;;4.50;3.30;;;;;;;21.32;61.62;99974.45;1658161;85;20973;-76
2022/06/18 11:09:28;;;;;;;3.77;3.42;;;;;;;21.33;62.60;99978.00;1654185;86;21122;-69
2022/06/18 11:12:05;;;;;;;2.80;2.60;;;;;;;21.17;63.07;99987.97;1655640;85;20981;-79
2022/06/18 11:14:42;;;;;;;3.83;2.83;;;;;;;20.90;62.11;99981.25;1680558;84;21152;-78
2022/06/18 11:17:28;;;;;;;3.47;3.25;;;;;;;20.54;64.59;99985.37;1677044;83;21057;-75
2022/06/18 11:20:19;;;;;;;2.77;2.58;;;;;;;20.24;68.61;100005.95;1655088;86;21057;-75
2022/06/18 11:22:58;;;;;;;3.27;3.02;;;;;;;20.06;70.10;99995.95;1678013;85;21582;-77
2022/06/18 11:25:32;;;;;;;3.00;2.80;;;;;;;19.91;71.21;100001.73;1652830;85;21038;-75
2022/06/18 11:28:02;;;;;;;5.40;2.95;;;;;;;19.77;71.68;99996.27;1676251;84;21618;-77
2022/06/18 11:30:40;;;;;;;2.58;2.25;;;;;;;19.63;72.06;99987.83;1699447;83;20989;-74
2022/06/18 11:33:33;;;;;;;2.77;2.58;;;;;;;19.59;72.47;99989.80;1690572;83;20950;-77
2022/06/18 11:36:15;;;;;;;2.47;2.27;;;;;;;19.60;72.62;99985.16;1679747;84;21022;-79
2022/06/18 11:38:44;;;;;;;3.08;2.47;;;;;;;19.63;72.33;99987.83;1675618;83;21080;-79
2022/06/18 11:41:33;;;;;;;2.75;2.55;;;;;;;19.62;72.29;99974.73;1661901;84;21594;-75
2022/06/18 11:44:04;;;;;;;2.85;2.65;;;;;;;19.65;72.55;99977.42;1663653;85;21064;-72
2022/06/18 11:46:45;;;;;;;2.55;2.42;;;;;;;19.69;72.30;99974.34;1663718;85;20999;-70
2022/06/18 11:49:17;;;;;;;2.85;2.65;;;;;;;19.70;71.53;99970.50;1662063;83;21061;-80
2022/06/18 11:52:25;;;;;;;3.00;2.80;;;;;;;19.71;71.67;99970.18;1667733;85;21048;-73
2022/06/18 11:55:18;;;;;;;2.90;2.70;;;;;;;19.73;72.09;99972.06;1687416;84;21544;-75
2022/06/18 11:58:00;;;;;;;2.30;2.10;;;;;;;19.78;71.81;99967.05;1662500;84;21048;-77
2022/06/18 12:00:36;;;;;;;2.87;2.67;;;;;;;19.83;70.50;99966.41;1700695;84;21003;-76
2022/06/18 12:03:22;;;;;;;4.33;3.30;;;;;;;19.92;69.89;99964.58;1678425;85;21029;-74
2022/06/18 12:06:00;;;;;;;3.92;3.60;;;;;;;19.98;69.40;99964.73;1701199;84;21032;-75
2022/06/18 12:08:28;;;;;;;2.55;2.35;;;;;;;20.06;69.00;99960.45;1684818;83;21454;-76
2022/06/18 12:11:09;;;;;;;3.20;2.33;;;;;;;20.06;68.81;99950.09;1698974;83;21025;-78
2022/06/18 12:13:42;;;;;;;3.62;2.60;;;;;;;20.06;68.17;99951.45;1694927;84;21705;-75